sensor_id;sensor_type;location;lat;lon;timestamp;temperature;humidity
45765;DHT22;31474;45.332;10.230;2023-02-01T00:02:06;4.20;99.90
45765;DHT22;31474;45.332;10.230;2023-02-01T00:04:31;4.30;99.90
45765;DHT22;31474;45.332;10.230;2023-02-01T00:06:57;4.20;99.90
45765;DHT22;31474;45.332;10.230;2023-02-01T00:09:23;4.20;99.90
45765;DHT22;31474;45.332;10.230;2023-02-01T00:11:48;4.20;99.90
45765;DHT22;31474;45.332;10.230;2023-02-01T00:14:14;4.20;99.90
45765;DHT22;31474;45.332;10.230;2023-02-01T00:16:40;4.20;99.90
45765;DHT22;31474;45.332;10.230;2023-02-01T00:19:09;4.30;99.90
45765;DHT22;31474;45.332;10.230;2023-02-01T00:21:35;4.30;99.90
45765;DHT22;31474;45.332;10.230;2023-02-01T00:24:02;4.30;99.90
45765;DHT22;31474;45.332;10.230;2023-02-01T00:26:32;4.30;99.90
45765;DHT22;31474;45.332;10.230;2023-02-01T00:28:58;4.30;99.90
45765;DHT22;31474;45.332;10.230;2023-02-01T00:31:24;4.20;99.90
45765;DHT22;31474;45.332;10.230;2023-02-01T00:33:50;4.10;99.90
45765;DHT22;31474;45.332;10.230;2023-02-01T00:36:16;4.00;99.90
45765;DHT22;31474;45.332;10.230;2023-02-01T00:38:42;4.00;99.90
45765;DHT22;31474;45.332;10.230;2023-02-01T00:41:15;4.00;99.90
45765;DHT22;31474;45.332;10.230;2023-02-01T00:43:41;3.90;99.90
45765;DHT22;31474;45.332;10.230;2023-02-01T00:46:07;3.90;99.90
45765;DHT22;31474;45.332;10.230;2023-02-01T00:48:33;4.00;99.90
45765;DHT22;31474;45.332;10.230;2023-02-01T00:51:08;4.00;99.90
45765;DHT22;31474;45.332;10.230;2023-02-01T00:53:35;4.00;99.90
45765;DHT22;31474;45.332;10.230;2023-02-01T00:56:03;3.80;99.90
45765;DHT22;31474;45.332;10.230;2023-02-01T00:58:29;3.80;99.90
45765;DHT22;31474;45.332;10.230;2023-02-01T01:01:10;3.80;99.90
45765;DHT22;31474;45.332;10.230;2023-02-01T01:03:41;3.90;99.90
45765;DHT22;31474;45.332;10.230;2023-02-01T01:06:12;3.90;99.90
45765;DHT22;31474;45.332;10.230;2023-02-01T01:08:38;3.90;99.90
45765;DHT22;31474;45.332;10.230;2023-02-01T01:11:10;3.90;99.90
45765;DHT22;31474;45.332;10.230;2023-02-01T01:13:36;3.90;99.90
45765;DHT22;31474;45.332;10.230;2023-02-01T01:16:05;3.90;99.90
45765;DHT22;31474;45.332;10.230;2023-02-01T01:18:31;3.80;99.90
45765;DHT22;31474;45.332;10.230;2023-02-01T01:20:58;3.80;99.90
45765;DHT22;31474;45.332;10.230;2023-02-01T01:23:23;3.70;99.90
45765;DHT22;31474;45.332;10.230;2023-02-01T01:25:49;3.60;99.90
45765;DHT22;31474;45.332;10.230;2023-02-01T01:28:15;3.70;99.90
45765;DHT22;31474;45.332;10.230;2023-02-01T01:30:41;3.60;99.90
45765;DHT22;31474;45.332;10.230;2023-02-01T01:33:06;3.60;99.90
45765;DHT22;31474;45.332;10.230;2023-02-01T01:35:33;3.60;99.90
45765;DHT22;31474;45.332;10.230;2023-02-01T01:38:00;3.60;99.90
45765;DHT22;31474;45.332;10.230;2023-02-01T01:40:28;3.60;99.90
45765;DHT22;31474;45.332;10.230;2023-02-01T01:42:54;3.50;99.90
45765;DHT22;31474;45.332;10.230;2023-02-01T01:45:35;3.40;99.90
45765;DHT22;31474;45.332;10.230;2023-02-01T01:48:06;3.30;99.90
45765;DHT22;31474;45.332;10.230;2023-02-01T01:50:42;3.20;99.90
45765;DHT22;31474;45.332;10.230;2023-02-01T01:53:12;3.20;99.90
45765;DHT22;31474;45.332;10.230;2023-02-01T01:55:41;3.20;99.90
45765;DHT22;31474;45.332;10.230;2023-02-01T01:58:11;3.20;99.90
45765;DHT22;31474;45.332;10.230;2023-02-01T02:00:38;3.10;99.90
45765;DHT22;31474;45.332;10.230;2023-02-01T02:03:20;3.10;99.90
45765;DHT22;31474;45.332;10.230;2023-02-01T02:05:48;3.10;99.90
45765;DHT22;31474;45.332;10.230;2023-02-01T02:08:15;3.20;99.90
45765;DHT22;31474;45.332;10.230;2023-02-01T02:10:42;3.30;99.90
45765;DHT22;31474;45.332;10.230;2023-02-01T02:13:38;3.20;99.90
45765;DHT22;31474;45.332;10.230;2023-02-01T02:18:55;3.20;99.90
45765;DHT22;31474;45.332;10.230;2023-02-01T02:39:24;3.00;99.90
45765;DHT22;31474;45.332;10.230;2023-02-01T02:45:13;2.90;99.90
45765;DHT22;31474;45.332;10.230;2023-02-01T02:50:43;2.80;99.90
45765;DHT22;31474;45.332;10.230;2023-02-01T02:53:34;2.80;99.90
45765;DHT22;31474;45.332;10.230;2023-02-01T02:56:21;2.70;99.90
45765;DHT22;31474;45.332;10.230;2023-02-01T02:59:09;2.80;99.90
45765;DHT22;31474;45.332;10.230;2023-02-01T03:01:54;2.80;99.90
45765;DHT22;31474;45.332;10.230;2023-02-01T03:04:38;2.70;99.90
45765;DHT22;31474;45.332;10.230;2023-02-01T03:10:03;2.80;99.90
45765;DHT22;31474;45.332;10.230;2023-02-01T03:12:34;2.80;99.90
45765;DHT22;31474;45.332;10.230;2023-02-01T03:15:36;2.90;99.90
45765;DHT22;31474;45.332;10.230;2023-02-01T03:18:10;2.80;99.90
45765;DHT22;31474;45.332;10.230;2023-02-01T03:20:40;2.90;99.90
45765;DHT22;31474;45.332;10.230;2023-02-01T03:23:08;2.90;99.90
45765;DHT22;31474;45.332;10.230;2023-02-01T03:25:34;2.80;99.90
45765;DHT22;31474;45.332;10.230;2023-02-01T03:28:06;2.80;99.90
45765;DHT22;31474;45.332;10.230;2023-02-01T03:30:42;2.90;99.90
45765;DHT22;31474;45.332;10.230;2023-02-01T03:33:18;2.90;99.90
45765;DHT22;31474;45.332;10.230;2023-02-01T03:46:39;2.80;99.90
45765;DHT22;31474;45.332;10.230;2023-02-01T03:49:09;2.70;99.90
45765;DHT22;31474;45.332;10.230;2023-02-01T03:51:38;2.80;99.90
45765;DHT22;31474;45.332;10.230;2023-02-01T03:54:06;2.80;99.90
45765;DHT22;31474;45.332;10.230;2023-02-01T03:56:33;2.80;99.90
45765;DHT22;31474;45.332;10.230;2023-02-01T03:59:01;2.90;99.90
45765;DHT22;31474;45.332;10.230;2023-02-01T04:01:30;2.90;99.90
45765;DHT22;31474;45.332;10.230;2023-02-01T04:03:57;2.90;99.90
45765;DHT22;31474;45.332;10.230;2023-02-01T04:06:24;2.90;99.90
45765;DHT22;31474;45.332;10.230;2023-02-01T04:08:50;3.10;99.90
45765;DHT22;31474;45.332;10.230;2023-02-01T04:11:17;3.00;99.90
45765;DHT22;31474;45.332;10.230;2023-02-01T04:13:43;3.00;99.90
45765;DHT22;31474;45.332;10.230;2023-02-01T04:16:09;3.00;99.90
45765;DHT22;31474;45.332;10.230;2023-02-01T04:18:34;3.00;99.90
45765;DHT22;31474;45.332;10.230;2023-02-01T04:21:01;3.00;99.90
45765;DHT22;31474;45.332;10.230;2023-02-01T04:23:28;3.00;99.90
45765;DHT22;31474;45.332;10.230;2023-02-01T04:25:54;3.00;99.90
45765;DHT22;31474;45.332;10.230;2023-02-01T04:28:23;3.00;99.90
45765;DHT22;31474;45.332;10.230;2023-02-01T04:30:49;2.90;99.90
45765;DHT22;31474;45.332;10.230;2023-02-01T04:33:15;2.80;99.90
45765;DHT22;31474;45.332;10.230;2023-02-01T04:35:40;2.80;99.90
45765;DHT22;31474;45.332;10.230;2023-02-01T04:38:06;2.90;99.90
45765;DHT22;31474;45.332;10.230;2023-02-01T04:40:32;2.90;99.90
45765;DHT22;31474;45.332;10.230;2023-02-01T04:43:00;2.90;99.90
45765;DHT22;31474;45.332;10.230;2023-02-01T04:45:25;2.90;99.90
45765;DHT22;31474;45.332;10.230;2023-02-01T04:47:51;2.90;99.90
45765;DHT22;31474;45.332;10.230;2023-02-01T04:50:17;2.80;99.90
45765;DHT22;31474;45.332;10.230;2023-02-01T04:52:42;2.80;99.90
45765;DHT22;31474;45.332;10.230;2023-02-01T04:55:10;2.70;99.90
45765;DHT22;31474;45.332;10.230;2023-02-01T04:57:36;2.70;99.90
45765;DHT22;31474;45.332;10.230;2023-02-01T05:00:04;2.60;99.90
45765;DHT22;31474;45.332;10.230;2023-02-01T05:02:30;2.60;99.90
45765;DHT22;31474;45.332;10.230;2023-02-01T05:04:57;2.50;99.90
45765;DHT22;31474;45.332;10.230;2023-02-01T05:07:23;2.40;99.90
45765;DHT22;31474;45.332;10.230;2023-02-01T05:09:49;2.30;99.90
45765;DHT22;31474;45.332;10.230;2023-02-01T05:12:15;2.30;99.90
45765;DHT22;31474;45.332;10.230;2023-02-01T05:14:59;2.30;99.90
45765;DHT22;31474;45.332;10.230;2023-02-01T05:17:24;2.30;99.90
45765;DHT22;31474;45.332;10.230;2023-02-01T05:19:50;2.30;99.90
45765;DHT22;31474;45.332;10.230;2023-02-01T05:22:16;2.20;99.90
45765;DHT22;31474;45.332;10.230;2023-02-01T05:24:41;2.20;99.90
45765;DHT22;31474;45.332;10.230;2023-02-01T05:27:07;2.10;99.90
45765;DHT22;31474;45.332;10.230;2023-02-01T05:29:32;2.20;99.90
45765;DHT22;31474;45.332;10.230;2023-02-01T05:31:58;2.20;99.90
45765;DHT22;31474;45.332;10.230;2023-02-01T05:34:24;2.20;99.90
45765;DHT22;31474;45.332;10.230;2023-02-01T05:36:49;2.20;99.90
45765;DHT22;31474;45.332;10.230;2023-02-01T05:39:15;2.20;99.90
45765;DHT22;31474;45.332;10.230;2023-02-01T05:41:41;2.30;99.90
45765;DHT22;31474;45.332;10.230;2023-02-01T05:44:07;2.20;99.90
45765;DHT22;31474;45.332;10.230;2023-02-01T05:46:33;2.20;99.90
45765;DHT22;31474;45.332;10.230;2023-02-01T05:48:59;2.20;99.90
45765;DHT22;31474;45.332;10.230;2023-02-01T05:51:25;2.10;99.90
45765;DHT22;31474;45.332;10.230;2023-02-01T05:53:51;2.10;99.90
45765;DHT22;31474;45.332;10.230;2023-02-01T05:56:16;2.10;99.90
45765;DHT22;31474;45.332;10.230;2023-02-01T05:58:42;2.20;99.90
45765;DHT22;31474;45.332;10.230;2023-02-01T06:01:07;2.10;99.90
45765;DHT22;31474;45.332;10.230;2023-02-01T06:03:33;2.10;99.90
45765;DHT22;31474;45.332;10.230;2023-02-01T06:05:59;2.00;99.90
45765;DHT22;31474;45.332;10.230;2023-02-01T06:08:27;2.00;99.90
45765;DHT22;31474;45.332;10.230;2023-02-01T06:11:00;2.00;99.90
45765;DHT22;31474;45.332;10.230;2023-02-01T06:13:26;2.10;99.90
45765;DHT22;31474;45.332;10.230;2023-02-01T06:15:51;2.10;99.90
45765;DHT22;31474;45.332;10.230;2023-02-01T06:18:17;2.20;99.90
45765;DHT22;31474;45.332;10.230;2023-02-01T06:20:43;2.20;99.90
45765;DHT22;31474;45.332;10.230;2023-02-01T06:23:09;2.10;99.90
45765;DHT22;31474;45.332;10.230;2023-02-01T06:25:34;2.10;99.90
45765;DHT22;31474;45.332;10.230;2023-02-01T06:28:00;2.10;99.90
45765;DHT22;31474;45.332;10.230;2023-02-01T06:30:26;2.10;99.90
45765;DHT22;31474;45.332;10.230;2023-02-01T06:32:52;2.10;99.90
45765;DHT22;31474;45.332;10.230;2023-02-01T06:35:21;2.20;99.90
45765;DHT22;31474;45.332;10.230;2023-02-01T06:37:46;2.30;99.90
45765;DHT22;31474;45.332;10.230;2023-02-01T06:40:12;2.20;99.90
45765;DHT22;31474;45.332;10.230;2023-02-01T06:42:38;2.20;99.90
45765;DHT22;31474;45.332;10.230;2023-02-01T06:45:03;2.20;99.90
45765;DHT22;31474;45.332;10.230;2023-02-01T06:47:29;2.10;99.90
45765;DHT22;31474;45.332;10.230;2023-02-01T06:49:55;2.00;99.90
45765;DHT22;31474;45.332;10.230;2023-02-01T06:52:20;2.00;99.90
45765;DHT22;31474;45.332;10.230;2023-02-01T06:54:46;2.10;99.90
45765;DHT22;31474;45.332;10.230;2023-02-01T06:57:12;2.10;99.90
45765;DHT22;31474;45.332;10.230;2023-02-01T06:59:37;2.10;99.90
45765;DHT22;31474;45.332;10.230;2023-02-01T07:02:03;2.10;99.90
45765;DHT22;31474;45.332;10.230;2023-02-01T07:04:28;2.10;99.90
45765;DHT22;31474;45.332;10.230;2023-02-01T07:06:55;2.10;99.90
45765;DHT22;31474;45.332;10.230;2023-02-01T07:09:21;2.10;99.90
45765;DHT22;31474;45.332;10.230;2023-02-01T07:11:46;2.10;99.90
45765;DHT22;31474;45.332;10.230;2023-02-01T07:14:12;2.10;99.90
45765;DHT22;31474;45.332;10.230;2023-02-01T07:16:38;2.20;99.90
45765;DHT22;31474;45.332;10.230;2023-02-01T07:19:04;2.30;99.90
45765;DHT22;31474;45.332;10.230;2023-02-01T07:21:30;2.40;99.90
45765;DHT22;31474;45.332;10.230;2023-02-01T07:23:56;2.50;99.90
45765;DHT22;31474;45.332;10.230;2023-02-01T07:26:23;2.50;99.90
45765;DHT22;31474;45.332;10.230;2023-02-01T07:28:48;2.60;99.90
45765;DHT22;31474;45.332;10.230;2023-02-01T07:31:16;2.80;99.90
45765;DHT22;31474;45.332;10.230;2023-02-01T07:33:45;2.90;99.90
45765;DHT22;31474;45.332;10.230;2023-02-01T07:36:16;3.00;99.90
45765;DHT22;31474;45.332;10.230;2023-02-01T07:38:42;3.10;99.90
45765;DHT22;31474;45.332;10.230;2023-02-01T07:41:08;3.20;99.90
45765;DHT22;31474;45.332;10.230;2023-02-01T07:43:35;3.30;99.90
45765;DHT22;31474;45.332;10.230;2023-02-01T07:46:02;3.50;99.90
45765;DHT22;31474;45.332;10.230;2023-02-01T07:48:28;3.60;99.90
45765;DHT22;31474;45.332;10.230;2023-02-01T07:51:03;3.70;99.90
45765;DHT22;31474;45.332;10.230;2023-02-01T07:53:30;3.80;99.90
45765;DHT22;31474;45.332;10.230;2023-02-01T07:55:56;3.80;99.90
45765;DHT22;31474;45.332;10.230;2023-02-01T07:58:23;3.90;99.90
45765;DHT22;31474;45.332;10.230;2023-02-01T08:00:49;4.00;99.90
45765;DHT22;31474;45.332;10.230;2023-02-01T08:03:33;4.10;99.90
45765;DHT22;31474;45.332;10.230;2023-02-01T08:05:59;4.20;99.90
45765;DHT22;31474;45.332;10.230;2023-02-01T08:08:24;4.30;99.90
45765;DHT22;31474;45.332;10.230;2023-02-01T08:10:50;4.50;99.90
45765;DHT22;31474;45.332;10.230;2023-02-01T08:13:16;4.60;99.90
45765;DHT22;31474;45.332;10.230;2023-02-01T08:15:42;4.60;99.90
45765;DHT22;31474;45.332;10.230;2023-02-01T08:18:08;4.70;99.90
45765;DHT22;31474;45.332;10.230;2023-02-01T08:20:35;4.70;99.90
45765;DHT22;31474;45.332;10.230;2023-02-01T08:23:01;5.00;99.90
45765;DHT22;31474;45.332;10.230;2023-02-01T08:25:27;5.20;99.90
45765;DHT22;31474;45.332;10.230;2023-02-01T08:27:53;5.20;99.90
45765;DHT22;31474;45.332;10.230;2023-02-01T08:30:20;5.30;99.90
45765;DHT22;31474;45.332;10.230;2023-02-01T08:32:47;5.20;99.90
45765;DHT22;31474;45.332;10.230;2023-02-01T08:35:13;5.20;99.90
45765;DHT22;31474;45.332;10.230;2023-02-01T08:37:39;5.30;99.90
45765;DHT22;31474;45.332;10.230;2023-02-01T08:40:05;5.40;99.90
45765;DHT22;31474;45.332;10.230;2023-02-01T08:42:31;5.50;99.90
45765;DHT22;31474;45.332;10.230;2023-02-01T08:45:20;5.60;99.90
45765;DHT22;31474;45.332;10.230;2023-02-01T08:47:46;5.70;99.90
45765;DHT22;31474;45.332;10.230;2023-02-01T08:50:13;5.90;99.90
45765;DHT22;31474;45.332;10.230;2023-02-01T08:52:39;6.00;99.90
45765;DHT22;31474;45.332;10.230;2023-02-01T08:55:06;6.00;99.90
45765;DHT22;31474;45.332;10.230;2023-02-01T08:57:33;6.20;99.90
45765;DHT22;31474;45.332;10.230;2023-02-01T08:59:59;6.40;99.90
45765;DHT22;31474;45.332;10.230;2023-02-01T09:02:25;6.60;99.90
45765;DHT22;31474;45.332;10.230;2023-02-01T09:04:51;6.70;99.90
45765;DHT22;31474;45.332;10.230;2023-02-01T09:07:17;6.80;99.90
45765;DHT22;31474;45.332;10.230;2023-02-01T09:09:44;7.00;99.90
45765;DHT22;31474;45.332;10.230;2023-02-01T09:12:10;7.20;99.90
45765;DHT22;31474;45.332;10.230;2023-02-01T09:14:36;7.30;99.90
45765;DHT22;31474;45.332;10.230;2023-02-01T09:17:02;7.40;99.90
45765;DHT22;31474;45.332;10.230;2023-02-01T09:19:28;7.70;99.90
45765;DHT22;31474;45.332;10.230;2023-02-01T09:21:53;7.80;99.90
45765;DHT22;31474;45.332;10.230;2023-02-01T09:24:19;7.90;99.90
45765;DHT22;31474;45.332;10.230;2023-02-01T09:26:45;8.00;99.90
45765;DHT22;31474;45.332;10.230;2023-02-01T09:29:11;8.20;99.90
45765;DHT22;31474;45.332;10.230;2023-02-01T09:31:37;8.20;99.90
45765;DHT22;31474;45.332;10.230;2023-02-01T09:34:04;8.40;99.90
45765;DHT22;31474;45.332;10.230;2023-02-01T09:36:30;8.40;99.90
45765;DHT22;31474;45.332;10.230;2023-02-01T09:38:55;8.50;99.90
45765;DHT22;31474;45.332;10.230;2023-02-01T09:41:32;8.50;99.90
45765;DHT22;31474;45.332;10.230;2023-02-01T09:44:20;8.60;99.90
45765;DHT22;31474;45.332;10.230;2023-02-01T09:46:56;8.70;99.90
45765;DHT22;31474;45.332;10.230;2023-02-01T09:49:33;8.60;99.90
45765;DHT22;31474;45.332;10.230;2023-02-01T09:52:04;8.70;99.90
45765;DHT22;31474;45.332;10.230;2023-02-01T09:55:03;8.70;99.90
45765;DHT22;31474;45.332;10.230;2023-02-01T09:57:56;8.80;99.90
45765;DHT22;31474;45.332;10.230;2023-02-01T10:00:28;8.80;99.90
45765;DHT22;31474;45.332;10.230;2023-02-01T10:02:55;8.80;99.90
45765;DHT22;31474;45.332;10.230;2023-02-01T10:22:33;9.50;99.90
45765;DHT22;31474;45.332;10.230;2023-02-01T10:28:01;9.60;99.90
45765;DHT22;31474;45.332;10.230;2023-02-01T10:30:44;9.70;99.90
45765;DHT22;31474;45.332;10.230;2023-02-01T10:33:17;9.80;99.90
45765;DHT22;31474;45.332;10.230;2023-02-01T10:35:44;9.70;99.90
45765;DHT22;31474;45.332;10.230;2023-02-01T10:38:29;9.70;99.90
45765;DHT22;31474;45.332;10.230;2023-02-01T10:41:10;9.80;99.90
45765;DHT22;31474;45.332;10.230;2023-02-01T10:43:37;9.90;99.90
45765;DHT22;31474;45.332;10.230;2023-02-01T10:46:04;10.00;99.90
45765;DHT22;31474;45.332;10.230;2023-02-01T10:48:31;10.10;99.90
45765;DHT22;31474;45.332;10.230;2023-02-01T10:51:06;10.10;99.90
45765;DHT22;31474;45.332;10.230;2023-02-01T10:53:50;10.20;99.90
45765;DHT22;31474;45.332;10.230;2023-02-01T10:56:28;10.30;99.90
45765;DHT22;31474;45.332;10.230;2023-02-01T10:59:04;10.30;99.90
45765;DHT22;31474;45.332;10.230;2023-02-01T11:01:35;10.30;99.90
45765;DHT22;31474;45.332;10.230;2023-02-01T11:04:04;10.30;99.90
45765;DHT22;31474;45.332;10.230;2023-02-01T11:06:33;10.40;99.90
45765;DHT22;31474;45.332;10.230;2023-02-01T11:16:57;10.70;99.90
45765;DHT22;31474;45.332;10.230;2023-02-01T11:19:24;10.70;99.90
45765;DHT22;31474;45.332;10.230;2023-02-01T11:21:51;10.80;99.90
45765;DHT22;31474;45.332;10.230;2023-02-01T11:24:27;10.90;99.90
45765;DHT22;31474;45.332;10.230;2023-02-01T11:26:59;10.90;99.90
45765;DHT22;31474;45.332;10.230;2023-02-01T11:29:31;11.00;99.90
45765;DHT22;31474;45.332;10.230;2023-02-01T11:31:59;11.10;99.90
45765;DHT22;31474;45.332;10.230;2023-02-01T11:34:46;11.10;99.90
45765;DHT22;31474;45.332;10.230;2023-02-01T11:37:31;11.20;99.90
45765;DHT22;31474;45.332;10.230;2023-02-01T11:45:54;11.50;99.90
45765;DHT22;31474;45.332;10.230;2023-02-01T11:48:20;11.60;99.90
45765;DHT22;31474;45.332;10.230;2023-02-01T11:59:56;11.70;99.90
45765;DHT22;31474;45.332;10.230;2023-02-01T12:19:06;11.90;99.90
45765;DHT22;31474;45.332;10.230;2023-02-01T12:21:47;11.90;99.90
45765;DHT22;31474;45.332;10.230;2023-02-01T12:24:38;12.00;99.90
45765;DHT22;31474;45.332;10.230;2023-02-01T12:46:41;12.40;99.90
45765;DHT22;31474;45.332;10.230;2023-02-01T12:49:22;12.50;99.90
45765;DHT22;31474;45.332;10.230;2023-02-01T12:51:54;12.50;99.90
45765;DHT22;31474;45.332;10.230;2023-02-01T12:57:01;12.60;99.90
45765;DHT22;31474;45.332;10.230;2023-02-01T12:59:42;12.70;99.90
45765;DHT22;31474;45.332;10.230;2023-02-01T13:03:11;12.70;99.90
45765;DHT22;31474;45.332;10.230;2023-02-01T13:05:23;12.70;99.90
45765;DHT22;31474;45.332;10.230;2023-02-01T13:08:04;12.80;99.90
45765;DHT22;31474;45.332;10.230;2023-02-01T13:10:53;12.80;99.90
45765;DHT22;31474;45.332;10.230;2023-02-01T13:13:42;12.80;99.90
45765;DHT22;31474;45.332;10.230;2023-02-01T13:16:17;12.70;99.90
45765;DHT22;31474;45.332;10.230;2023-02-01T13:18:50;12.70;99.90
45765;DHT22;31474;45.332;10.230;2023-02-01T13:21:31;12.70;99.90
45765;DHT22;31474;45.332;10.230;2023-02-01T13:23:58;12.70;99.90
45765;DHT22;31474;45.332;10.230;2023-02-01T13:26:24;12.70;99.90
45765;DHT22;31474;45.332;10.230;2023-02-01T13:28:57;12.70;99.90
45765;DHT22;31474;45.332;10.230;2023-02-01T13:31:51;12.70;99.90
45765;DHT22;31474;45.332;10.230;2023-02-01T13:42:19;12.80;99.90
45765;DHT22;31474;45.332;10.230;2023-02-01T13:45:32;12.90;99.90
45765;DHT22;31474;45.332;10.230;2023-02-01T13:47:40;12.80;99.90
45765;DHT22;31474;45.332;10.230;2023-02-01T13:50:35;12.80;99.90
45765;DHT22;31474;45.332;10.230;2023-02-01T13:53:12;12.90;99.90
45765;DHT22;31474;45.332;10.230;2023-02-01T13:55:44;12.90;99.90
45765;DHT22;31474;45.332;10.230;2023-02-01T14:00:40;12.90;99.90
45765;DHT22;31474;45.332;10.230;2023-02-01T14:03:08;12.90;99.90
45765;DHT22;31474;45.332;10.230;2023-02-01T14:10:57;12.80;99.90
45765;DHT22;31474;45.332;10.230;2023-02-01T14:13:34;12.80;99.90
45765;DHT22;31474;45.332;10.230;2023-02-01T14:23:57;12.80;99.90
45765;DHT22;31474;45.332;10.230;2023-02-01T14:32:06;12.80;99.90
45765;DHT22;31474;45.332;10.230;2023-02-01T14:55:40;12.60;99.90
45765;DHT22;31474;45.332;10.230;2023-02-01T15:00:53;12.50;99.90
45765;DHT22;31474;45.332;10.230;2023-02-01T15:06:00;12.40;99.90
45765;DHT22;31474;45.332;10.230;2023-02-01T15:08:34;12.40;99.90
45765;DHT22;31474;45.332;10.230;2023-02-01T15:11:10;12.30;99.90
45765;DHT22;31474;45.332;10.230;2023-02-01T15:13:37;12.20;99.90
45765;DHT22;31474;45.332;10.230;2023-02-01T15:16:07;12.20;99.90
45765;DHT22;31474;45.332;10.230;2023-02-01T15:18:35;12.10;99.90
45765;DHT22;31474;45.332;10.230;2023-02-01T15:21:02;12.10;99.90
45765;DHT22;31474;45.332;10.230;2023-02-01T15:23:28;12.10;99.90
45765;DHT22;31474;45.332;10.230;2023-02-01T15:25:54;12.00;99.90
45765;DHT22;31474;45.332;10.230;2023-02-01T15:28:21;12.00;99.90
45765;DHT22;31474;45.332;10.230;2023-02-01T15:31:01;11.90;99.90
45765;DHT22;31474;45.332;10.230;2023-02-01T15:33:29;11.90;99.90
45765;DHT22;31474;45.332;10.230;2023-02-01T15:36:10;11.80;99.90
45765;DHT22;31474;45.332;10.230;2023-02-01T15:38:41;11.70;99.90
45765;DHT22;31474;45.332;10.230;2023-02-01T15:41:18;11.70;99.90
45765;DHT22;31474;45.332;10.230;2023-02-01T15:44:01;11.60;99.90
45765;DHT22;31474;45.332;10.230;2023-02-01T15:46:35;11.60;99.90
45765;DHT22;31474;45.332;10.230;2023-02-01T15:49:02;11.50;99.90
45765;DHT22;31474;45.332;10.230;2023-02-01T15:51:30;11.50;99.90
45765;DHT22;31474;45.332;10.230;2023-02-01T15:53:59;11.40;99.90
45765;DHT22;31474;45.332;10.230;2023-02-01T15:56:28;11.40;99.90
45765;DHT22;31474;45.332;10.230;2023-02-01T15:59:00;11.30;99.90
45765;DHT22;31474;45.332;10.230;2023-02-01T16:01:27;11.20;99.90
45765;DHT22;31474;45.332;10.230;2023-02-01T16:04:11;11.20;99.90
45765;DHT22;31474;45.332;10.230;2023-02-01T16:09:14;11.00;99.90
45765;DHT22;31474;45.332;10.230;2023-02-01T16:11:48;11.00;99.90
45765;DHT22;31474;45.332;10.230;2023-02-01T16:14:14;10.90;99.90
45765;DHT22;31474;45.332;10.230;2023-02-01T16:16:40;10.80;99.90
45765;DHT22;31474;45.332;10.230;2023-02-01T16:19:05;10.70;99.90
45765;DHT22;31474;45.332;10.230;2023-02-01T16:21:31;10.70;99.90
45765;DHT22;31474;45.332;10.230;2023-02-01T16:23:57;10.60;99.90
45765;DHT22;31474;45.332;10.230;2023-02-01T16:26:22;10.50;99.90
45765;DHT22;31474;45.332;10.230;2023-02-01T16:28:48;10.40;99.90
45765;DHT22;31474;45.332;10.230;2023-02-01T16:31:17;10.30;99.90
45765;DHT22;31474;45.332;10.230;2023-02-01T16:33:50;10.20;99.90
45765;DHT22;31474;45.332;10.230;2023-02-01T16:36:16;10.10;99.90
45765;DHT22;31474;45.332;10.230;2023-02-01T16:38:43;10.10;99.90
45765;DHT22;31474;45.332;10.230;2023-02-01T16:41:19;10.00;99.90
45765;DHT22;31474;45.332;10.230;2023-02-01T16:43:45;9.90;99.90
45765;DHT22;31474;45.332;10.230;2023-02-01T16:46:17;9.90;99.90
45765;DHT22;31474;45.332;10.230;2023-02-01T16:48:48;9.80;99.90
45765;DHT22;31474;45.332;10.230;2023-02-01T16:51:16;9.70;99.90
45765;DHT22;31474;45.332;10.230;2023-02-01T16:53:42;9.60;99.90
45765;DHT22;31474;45.332;10.230;2023-02-01T16:56:14;9.50;99.90
45765;DHT22;31474;45.332;10.230;2023-02-01T16:58:40;9.50;99.90
45765;DHT22;31474;45.332;10.230;2023-02-01T17:01:09;9.40;99.90
45765;DHT22;31474;45.332;10.230;2023-02-01T17:03:35;9.40;99.90
45765;DHT22;31474;45.332;10.230;2023-02-01T17:06:01;9.30;99.90
45765;DHT22;31474;45.332;10.230;2023-02-01T17:08:30;9.30;99.90
45765;DHT22;31474;45.332;10.230;2023-02-01T17:10:57;9.20;99.90
45765;DHT22;31474;45.332;10.230;2023-02-01T17:13:22;9.20;99.90
45765;DHT22;31474;45.332;10.230;2023-02-01T17:15:52;9.20;99.90
45765;DHT22;31474;45.332;10.230;2023-02-01T17:18:19;9.10;99.90
45765;DHT22;31474;45.332;10.230;2023-02-01T17:20:45;9.10;99.90
45765;DHT22;31474;45.332;10.230;2023-02-01T17:23:13;9.10;99.90
45765;DHT22;31474;45.332;10.230;2023-02-01T17:25:39;9.10;99.90
45765;DHT22;31474;45.332;10.230;2023-02-01T17:28:06;9.00;99.90
45765;DHT22;31474;45.332;10.230;2023-02-01T17:30:32;9.00;99.90
45765;DHT22;31474;45.332;10.230;2023-02-01T17:32:57;9.00;99.90
45765;DHT22;31474;45.332;10.230;2023-02-01T17:35:25;8.90;99.90
45765;DHT22;31474;45.332;10.230;2023-02-01T17:37:52;8.90;99.90
45765;DHT22;31474;45.332;10.230;2023-02-01T17:40:18;8.80;99.90
45765;DHT22;31474;45.332;10.230;2023-02-01T17:42:43;8.80;99.90
45765;DHT22;31474;45.332;10.230;2023-02-01T17:45:20;8.80;99.90
45765;DHT22;31474;45.332;10.230;2023-02-01T17:47:48;8.80;99.90
45765;DHT22;31474;45.332;10.230;2023-02-01T17:50:14;8.70;99.90
45765;DHT22;31474;45.332;10.230;2023-02-01T17:52:40;8.70;99.90
45765;DHT22;31474;45.332;10.230;2023-02-01T17:55:26;8.60;99.90
45765;DHT22;31474;45.332;10.230;2023-02-01T17:57:52;8.60;99.90
45765;DHT22;31474;45.332;10.230;2023-02-01T18:00:18;8.60;99.90
45765;DHT22;31474;45.332;10.230;2023-02-01T18:02:44;8.70;99.90
45765;DHT22;31474;45.332;10.230;2023-02-01T18:05:40;8.60;99.90
45765;DHT22;31474;45.332;10.230;2023-02-01T18:08:07;8.60;99.90
45765;DHT22;31474;45.332;10.230;2023-02-01T18:10:34;8.60;99.90
45765;DHT22;31474;45.332;10.230;2023-02-01T18:13:01;8.50;99.90
45765;DHT22;31474;45.332;10.230;2023-02-01T18:15:28;8.50;99.90
45765;DHT22;31474;45.332;10.230;2023-02-01T18:17:55;8.50;99.90
45765;DHT22;31474;45.332;10.230;2023-02-01T18:20:24;8.50;99.90
45765;DHT22;31474;45.332;10.230;2023-02-01T18:22:50;8.50;99.90
45765;DHT22;31474;45.332;10.230;2023-02-01T18:25:20;8.50;99.90
45765;DHT22;31474;45.332;10.230;2023-02-01T18:27:47;8.40;99.90
45765;DHT22;31474;45.332;10.230;2023-02-01T18:30:13;8.40;99.90
45765;DHT22;31474;45.332;10.230;2023-02-01T18:32:39;8.40;99.90
45765;DHT22;31474;45.332;10.230;2023-02-01T18:37:42;8.40;99.90
45765;DHT22;31474;45.332;10.230;2023-02-01T18:40:16;8.40;99.90
45765;DHT22;31474;45.332;10.230;2023-02-01T18:42:42;8.30;99.90
45765;DHT22;31474;45.332;10.230;2023-02-01T18:45:32;8.30;99.90
45765;DHT22;31474;45.332;10.230;2023-02-01T18:47:59;8.30;99.90